createdAt,value
2022-10-15T00:04:20.345Z,100.00
2022-10-15T00:09:24.146Z,100.00
2022-10-15T00:14:30.246Z,100.00
2022-10-15T00:19:34.208Z,100.00
2022-10-15T00:24:38.058Z,100.00
2022-10-15T00:29:43.527Z,100.00
2022-10-15T00:34:47.661Z,100.00
2022-10-15T00:39:51.835Z,100.00
2022-10-15T00:44:59.909Z,100.00
2022-10-15T00:50:07.528Z,100.00
2022-10-15T00:55:15.317Z,100.00
2022-10-15T01:00:21.910Z,100.00
2022-10-15T01:05:25.942Z,100.00
2022-10-15T01:10:37.577Z,100.00
2022-10-15T01:15:49.942Z,100.00
2022-10-15T01:21:12.576Z,100.00
2022-10-15T01:26:46.220Z,100.00
2022-10-15T01:32:04.030Z,100.00
2022-10-15T01:37:12.987Z,100.00
2022-10-15T01:42:24.745Z,100.00
2022-10-15T01:47:37.015Z,100.00
2022-10-15T01:52:43.336Z,100.00
2022-10-15T01:57:48.763Z,100.00
2022-10-15T02:02:54.270Z,100.00
2022-10-15T02:08:07.315Z,100.00
2022-10-15T02:13:31.209Z,100.00
2022-10-15T02:18:42.552Z,100.00
2022-10-15T02:23:52.942Z,100.00
2022-10-15T02:29:02.955Z,100.00
2022-10-15T02:34:12.059Z,100.00
2022-10-15T02:39:20.324Z,100.00
2022-10-15T02:44:24.122Z,100.00
2022-10-15T02:49:29.355Z,100.00
2022-10-15T02:54:33.291Z,100.00
2022-10-15T02:59:38.155Z,100.00
2022-10-15T03:04:43.692Z,100.00
2022-10-15T03:09:51.518Z,100.00
2022-10-15T03:14:55.611Z,100.00
2022-10-15T03:20:01.067Z,100.00
2022-10-15T03:25:07.055Z,100.00
2022-10-15T03:30:12.154Z,100.00
2022-10-15T03:35:17.559Z,100.00
2022-10-15T03:40:21.951Z,100.00
2022-10-15T03:45:30.642Z,100.00
2022-10-15T03:50:52.568Z,100.00
2022-10-15T03:56:05.496Z,100.00
2022-10-15T04:01:11.758Z,100.00
2022-10-15T04:06:17.198Z,100.00
2022-10-15T04:11:22.586Z,100.00
2022-10-15T04:16:36.189Z,100.00
2022-10-15T04:21:50.222Z,100.00
2022-10-15T04:27:07.634Z,100.00
2022-10-15T04:32:14.262Z,100.00
2022-10-15T04:37:20.563Z,100.00
2022-10-15T04:42:24.640Z,100.00
2022-10-15T04:47:29.007Z,100.00
2022-10-15T04:52:45.035Z,100.00
2022-10-15T04:57:50.644Z,100.00
2022-10-15T05:03:01.263Z,100.00
2022-10-15T05:08:20.442Z,100.00
2022-10-15T05:13:45.966Z,100.00
2022-10-15T05:18:51.828Z,100.00
2022-10-15T05:23:57.174Z,100.00
2022-10-15T05:29:21.403Z,100.00
2022-10-15T05:34:26.957Z,100.00
2022-10-15T05:39:37.641Z,100.00
2022-10-15T05:44:41.758Z,100.00
2022-10-15T05:49:45.616Z,100.00
2022-10-15T05:54:55.727Z,100.00
2022-10-15T05:59:59.914Z,100.00
2022-10-15T06:05:05.069Z,100.00
2022-10-15T06:10:10.590Z,100.00
2022-10-15T06:15:15.252Z,100.00
2022-10-15T06:20:22.232Z,100.00
2022-10-15T06:25:27.604Z,100.00
2022-10-15T06:30:31.674Z,100.00
2022-10-15T06:35:36.624Z,100.00
2022-10-15T06:40:42.198Z,100.00
2022-10-15T06:45:46.115Z,100.00
2022-10-15T06:50:54.248Z,100.00
2022-10-15T06:56:00.143Z,100.00
2022-10-15T07:01:05.205Z,100.00
2022-10-15T07:06:10.625Z,99.65
2022-10-15T07:11:15.874Z,100.00
2022-10-15T07:16:19.651Z,100.00
2022-10-15T07:21:23.589Z,95.20
2022-10-15T07:26:29.332Z,97.07
2022-10-15T07:31:35.350Z,99.43
2022-10-15T07:36:39.513Z,95.95
2022-10-15T07:41:45.716Z,94.41
2022-10-15T07:46:49.506Z,90.20
2022-10-15T07:51:53.283Z,94.62
2022-10-15T07:56:58.316Z,91.32
2022-10-15T08:02:02.887Z,88.96
2022-10-15T08:07:09.518Z,90.37
2022-10-15T08:12:15.919Z,86.29
2022-10-15T08:17:20.163Z,85.81
2022-10-15T08:22:26.839Z,84.03
2022-10-15T08:27:34.360Z,81.84
2022-10-15T08:32:41.178Z,83.00
2022-10-15T08:37:44.923Z,79.86
2022-10-15T08:42:51.106Z,80.74
2022-10-15T08:47:59.777Z,76.06
2022-10-15T08:53:03.862Z,77.48
2022-10-15T08:58:16.242Z,75.83
2022-10-15T09:03:37.810Z,77.97
2022-10-15T09:08:51.720Z,77.42
2022-10-15T09:13:57.160Z,76.54
2022-10-15T09:19:05.876Z,74.45
2022-10-15T09:24:13.696Z,70.90
2022-10-15T09:29:26.196Z,76.02
2022-10-15T09:34:39.944Z,72.34
2022-10-15T09:39:57.929Z,74.94
2022-10-15T09:45:07.237Z,73.35
2022-10-15T09:50:13.888Z,71.93
2022-10-15T09:55:33.051Z,70.75
2022-10-15T10:00:56.693Z,68.92
2022-10-15T10:06:04.930Z,71.02
2022-10-15T10:11:13.909Z,70.91
2022-10-15T10:16:21.154Z,67.33
2022-10-15T10:21:27.152Z,68.88
2022-10-15T10:26:36.377Z,69.00
2022-10-15T10:31:43.874Z,66.07
2022-10-15T10:36:58.149Z,64.71
2022-10-15T10:42:05.202Z,64.02
2022-10-15T10:47:17.707Z,62.66
2022-10-15T10:52:27.030Z,61.99
2022-10-15T10:57:43.383Z,60.17
2022-10-15T11:02:48.871Z,59.97
2022-10-15T11:08:01.642Z,62.69
2022-10-15T11:13:21.571Z,61.80
2022-10-15T11:18:50.708Z,63.16
2022-10-15T11:24:10.665Z,62.50
2022-10-15T11:29:25.685Z,62.43
2022-10-15T11:34:46.013Z,60.31
2022-10-15T11:40:13.704Z,60.91
2022-10-15T11:45:36.168Z,54.29
2022-10-15T11:50:51.328Z,53.54
2022-10-15T11:56:01.748Z,51.63
2022-10-15T12:01:14.129Z,53.24
2022-10-15T12:06:23.006Z,53.52
2022-10-15T12:11:39.755Z,52.39
2022-10-15T12:16:53.795Z,52.04
2022-10-15T12:22:13.653Z,51.46
2022-10-15T12:27:22.964Z,53.56
2022-10-15T12:32:29.975Z,52.76
2022-10-15T12:37:37.123Z,50.98
2022-10-15T12:42:41.821Z,50.36
2022-10-15T12:47:50.304Z,51.37
2022-10-15T12:53:01.773Z,52.87
2022-10-15T12:58:27.420Z,51.32
2022-10-15T13:03:36.457Z,49.04
2022-10-15T13:08:45.778Z,50.01
2022-10-15T13:13:52.072Z,50.40
2022-10-15T13:18:57.394Z,55.43
2022-10-15T13:24:04.793Z,58.11
2022-10-15T13:29:17.271Z,58.27
2022-10-15T13:34:27.477Z,59.02
2022-10-15T13:47:04.872Z,55.61
2022-10-15T13:52:11.678Z,53.95
2022-10-15T13:57:18.602Z,55.14
2022-10-15T14:02:24.630Z,61.15
2022-10-15T14:07:28.940Z,64.13
2022-10-15T14:12:33.535Z,66.48
2022-10-15T14:17:39.254Z,67.32
2022-10-15T14:22:43.301Z,68.48
2022-10-15T14:27:47.507Z,64.26
2022-10-15T14:32:52.984Z,64.82
2022-10-15T14:38:01.702Z,64.67
2022-10-15T14:43:07.848Z,65.61
2022-10-15T14:48:19.778Z,65.14
2022-10-15T14:53:28.522Z,66.24
2022-10-15T14:58:32.646Z,65.42
2022-10-15T15:03:42.730Z,68.16
2022-10-15T15:08:46.903Z,68.40
2022-10-15T15:13:52.392Z,69.28
2022-10-15T15:18:58.497Z,68.88
2022-10-15T15:24:02.598Z,69.18
2022-10-15T15:34:30.884Z,70.16
2022-10-15T15:39:34.840Z,71.31
2022-10-15T15:44:38.734Z,73.47
2022-10-15T15:49:44.182Z,80.04
2022-10-15T15:54:48.350Z,85.50
2022-10-15T15:59:52.333Z,88.90
2022-10-15T16:04:57.815Z,84.16
2022-10-15T16:10:02.027Z,82.72
2022-10-15T16:15:07.916Z,81.17
2022-10-15T16:20:15.799Z,77.69
2022-10-15T16:25:20.676Z,77.59
2022-10-15T16:30:24.783Z,79.05
2022-10-15T16:35:30.235Z,79.82
2022-10-15T16:40:34.786Z,79.17
2022-10-15T16:45:39.250Z,80.82
2022-10-15T16:50:44.722Z,80.84
2022-10-15T16:55:48.750Z,81.77
2022-10-15T17:00:52.932Z,82.72
2022-10-15T17:05:59.585Z,83.33
2022-10-15T17:11:03.907Z,85.02
2022-10-15T17:16:15.876Z,86.12
2022-10-15T17:21:23.331Z,85.77
2022-10-15T17:26:33.904Z,89.03
2022-10-15T17:31:39.956Z,89.31
2022-10-15T17:36:47.760Z,90.73
2022-10-15T17:41:52.989Z,93.87
2022-10-15T17:46:57.002Z,98.87
2022-10-15T17:52:10.308Z,100.00
2022-10-15T17:57:14.454Z,100.00
2022-10-15T18:02:18.483Z,96.89
2022-10-15T18:07:24.683Z,97.59
2022-10-15T18:12:29.011Z,95.56
2022-10-15T18:17:33.028Z,96.07
2022-10-15T18:22:38.491Z,92.21
2022-10-15T18:27:42.766Z,95.24
2022-10-15T18:32:46.749Z,96.62
2022-10-15T18:37:54.671Z,97.10
2022-10-15T18:42:59.113Z,94.76
2022-10-15T18:48:07.045Z,94.91
2022-10-15T18:53:12.827Z,95.42
2022-10-15T18:58:16.511Z,95.02
2022-10-15T19:03:20.524Z,97.13
2022-10-15T19:08:26.411Z,100.00
2022-10-15T19:13:30.758Z,98.81
2022-10-15T19:18:36.972Z,98.63
2022-10-15T19:23:42.694Z,99.69
2022-10-15T19:28:47.303Z,100.00
2022-10-15T19:33:51.405Z,100.00
2022-10-15T19:38:58.124Z,100.00
2022-10-15T19:44:08.039Z,100.00
2022-10-15T19:49:13.700Z,100.00
2022-10-15T19:54:18.975Z,100.00
2022-10-15T19:59:23.350Z,100.00
2022-10-15T20:04:29.481Z,100.00
2022-10-15T20:09:34.963Z,100.00
2022-10-15T20:14:38.890Z,100.00
2022-10-15T20:19:42.856Z,100.00
2022-10-15T20:24:48.103Z,100.00
2022-10-15T20:29:52.118Z,100.00
2022-10-15T20:34:56.201Z,100.00
2022-10-15T20:40:01.571Z,100.00
2022-10-15T20:45:06.219Z,100.00
2022-10-15T20:50:15.321Z,100.00
2022-10-15T20:55:21.178Z,100.00
2022-10-15T21:00:24.844Z,100.00
2022-10-15T21:05:29.449Z,100.00
2022-10-15T21:10:34.805Z,100.00
2022-10-15T21:15:38.795Z,100.00
2022-10-15T21:20:42.672Z,100.00
2022-10-15T21:25:48.535Z,100.00
2022-10-15T21:30:52.472Z,100.00
2022-10-15T21:35:56.345Z,100.00
2022-10-15T21:41:01.763Z,100.00
2022-10-15T21:46:07.237Z,100.00
2022-10-15T21:51:13.265Z,100.00
2022-10-15T21:56:20.036Z,100.00
2022-10-15T22:01:25.669Z,100.00
2022-10-15T22:06:29.955Z,100.00
2022-10-15T22:11:38.789Z,100.00
2022-10-15T22:16:46.319Z,100.00
2022-10-15T22:21:50.333Z,100.00
2022-10-15T22:26:55.693Z,100.00
2022-10-15T22:31:59.674Z,100.00
2022-10-15T22:37:03.681Z,100.00
2022-10-15T22:42:09.579Z,100.00
2022-10-15T22:47:13.629Z,100.00
2022-10-15T22:52:20.133Z,100.00
2022-10-15T22:57:25.476Z,100.00
2022-10-15T23:02:29.329Z,100.00
2022-10-15T23:07:33.205Z,100.00
2022-10-15T23:12:40.150Z,100.00
2022-10-15T23:17:43.994Z,100.00
2022-10-15T23:22:47.963Z,100.00
2022-10-15T23:27:53.205Z,100.00
2022-10-15T23:32:57.240Z,100.00
2022-10-15T23:38:01.105Z,100.00
2022-10-15T23:43:06.651Z,100.00
2022-10-15T23:48:10.558Z,100.00
2022-10-15T23:53:14.509Z,100.00
2022-10-15T23:58:20.205Z,100.00
